Time;durP1;ratioP1;P1;durP2;ratioP2;P2;SDS_P1;SDS_P2;PMS_P1;PMS_P2;Temp;Humidity;BMP_temperature;BMP_pressure;BME280_temperature;BME280_humidity;BME280_pressure;Samples;Min_cycle;Max_cycle;Signal;HPM_P1;HPM_P2
2023/03/03 00:00:53;;;;;;;23.17;13.93;;;;;;;6.93;54.24;102307.06;5118541;27;20048;-66
2023/03/03 00:03:24;;;;;;;21.40;13.27;;;;;;;6.94;54.39;102319.41;5119814;28;20479;-66
2023/03/03 00:05:52;;;;;;;23.02;14.18;;;;;;;6.93;54.23;102319.59;5126049;28;20571;-67
2023/03/03 00:08:21;;;;;;;21.50;13.57;;;;;;;6.93;54.55;102316.91;5112137;28;20079;-66
2023/03/03 00:10:49;;;;;;;22.15;14.07;;;;;;;6.91;54.15;102316.25;5116109;28;20056;-67
2023/03/03 00:13:19;;;;;;;25.42;14.38;;;;;;;6.88;54.52;102314.72;5118420;28;20044;-67
2023/03/03 00:15:48;;;;;;;25.88;14.70;;;;;;;6.89;54.29;102315.56;5126165;28;20576;-67
2023/03/03 00:18:28;;;;;;;22.42;14.25;;;;;;;6.87;54.06;102321.06;5120939;28;20079;-67
2023/03/03 00:20:59;;;;;;;19.27;12.70;;;;;;;6.89;54.68;102315.56;5121465;28;20047;-67
2023/03/03 00:23:30;;;;;;;23.67;14.65;;;;;;;6.88;54.46;102325.41;5115013;28;20047;-67
2023/03/03 00:25:59;;;;;;;22.38;14.82;;;;;;;6.86;54.66;102319.41;5119546;28;20079;-67
2023/03/03 00:28:30;;;;;;;22.42;14.90;;;;;;;6.83;54.44;102323.22;5124945;28;20143;-67
2023/03/03 00:30:59;;;;;;;24.08;14.40;;;;;;;6.83;54.69;102325.06;5122278;28;20346;-67
2023/03/03 00:33:32;;;;;;;24.15;15.52;;;;;;;6.75;54.88;102314.34;5118126;28;20512;-67
2023/03/03 00:36:22;;;;;;;24.23;14.70;;;;;;;6.79;54.68;102331.72;5111973;28;20150;-67
2023/03/03 00:38:50;;;;;;;22.40;14.55;;;;;;;6.73;55.27;102337.72;5112697;28;20044;-67
2023/03/03 00:41:22;;;;;;;21.75;14.85;;;;;;;6.73;55.32;102340.38;5121058;27;20067;-67
2023/03/03 00:43:51;;;;;;;25.10;15.60;;;;;;;6.65;54.91;102327.00;5123681;28;20044;-67
2023/03/03 00:46:20;;;;;;;24.13;14.55;;;;;;;6.68;55.28;102332.00;5122538;28;20070;-67
2023/03/03 00:48:51;;;;;;;23.38;14.93;;;;;;;6.66;55.18;102336.69;5121531;28;20042;-67
2023/03/03 00:51:26;;;;;;;22.23;14.88;;;;;;;6.65;55.34;102340.34;5121173;27;20054;-66
2023/03/03 00:53:54;;;;;;;23.90;15.15;;;;;;;6.64;54.95;102341.34;5129618;27;20082;-66
2023/03/03 00:56:23;;;;;;;26.00;15.32;;;;;;;6.65;55.14;102337.69;5122600;28;20040;-67
2023/03/03 00:58:51;;;;;;;22.92;15.43;;;;;;;6.62;55.43;102338.81;5118246;28;20039;-67
2023/03/03 01:01:19;;;;;;;23.92;15.13;;;;;;;6.60;54.99;102340.81;5122097;27;20048;-65
2023/03/03 01:03:47;;;;;;;23.33;14.98;;;;;;;6.60;55.02;102346.16;5120917;28;20040;-66
2023/03/03 01:06:16;;;;;;;23.40;15.48;;;;;;;6.56;55.12;102347.47;5113799;28;20089;-66
2023/03/03 01:08:43;;;;;;;26.65;16.50;;;;;;;6.55;55.11;102348.47;5115184;28;20100;-66
2023/03/03 01:11:15;;;;;;;21.48;14.02;;;;;;;6.50;55.19;102351.63;5123940;28;20055;-66
2023/03/03 01:13:47;;;;;;;26.00;15.35;;;;;;;6.50;55.17;102348.94;5120512;28;20139;-67
2023/03/03 01:16:15;;;;;;;24.42;15.60;;;;;;;6.48;55.50;102355.44;5116681;28;20519;-67
2023/03/03 01:18:43;;;;;;;23.38;14.93;;;;;;;6.48;55.35;102347.44;5116344;27;20040;-67
2023/03/03 01:21:11;;;;;;;24.98;15.43;;;;;;;6.46;55.30;102358.28;5114175;28;20075;-67
2023/03/03 01:23:40;;;;;;;23.05;14.82;;;;;;;6.45;55.07;102359.25;5113985;28;20535;-67
2023/03/03 01:26:08;;;;;;;21.98;14.40;;;;;;;6.42;55.31;102356.06;5123332;28;20058;-67
2023/03/03 01:28:36;;;;;;;22.38;14.30;;;;;;;6.39;55.57;102359.06;5112936;28;20107;-67
2023/03/03 01:31:05;;;;;;;22.88;14.10;;;;;;;6.39;55.46;102359.06;5122119;28;20134;-67
2023/03/03 01:33:35;;;;;;;24.13;15.07;;;;;;;6.40;55.23;102363.41;5121425;28;20039;-67
2023/03/03 01:36:04;;;;;;;25.45;15.38;;;;;;;6.34;55.14;102362.19;5119393;27;20052;-64
2023/03/03 01:38:32;;;;;;;25.45;14.80;;;;;;;6.38;55.33;102368.91;5116937;28;20056;-66
2023/03/03 01:41:01;;;;;;;21.60;14.13;;;;;;;6.33;55.04;102354.34;5120114;28;20039;-66
2023/03/03 01:43:30;;;;;;;27.00;15.68;;;;;;;6.37;55.23;102358.38;5111062;28;20052;-66
2023/03/03 01:46:31;;;;;;;24.20;15.07;;;;;;;6.37;55.05;102363.72;5120568;28;20043;-66
2023/03/03 01:49:02;;;;;;;25.98;15.90;;;;;;;6.39;55.00;102367.06;5120666;28;20381;-66
2023/03/03 01:51:33;;;;;;;25.92;15.35;;;;;;;6.35;55.13;102363.88;5119240;28;20036;-66
2023/03/03 01:54:03;;;;;;;23.08;14.45;;;;;;;6.33;55.29;102371.19;5115300;28;20075;-66
2023/03/03 01:56:32;;;;;;;26.67;16.73;;;;;;;6.32;55.05;102371.34;5119965;28;20039;-66
2023/03/03 01:59:05;;;;;;;26.15;16.58;;;;;;;6.33;55.34;102373.88;5120826;28;20067;-66
2023/03/03 02:01:34;;;;;;;25.95;15.52;;;;;;;6.36;55.29;102368.22;5117797;28;20044;-67
2023/03/03 02:04:02;;;;;;;24.15;15.57;;;;;;;6.34;55.22;102369.38;5120620;28;20100;-67
2023/03/03 02:06:34;;;;;;;25.58;15.05;;;;;;;6.34;55.06;102364.03;5120552;28;20052;-67
2023/03/03 02:09:10;;;;;;;22.90;14.55;;;;;;;6.31;55.14;102359.00;5120301;28;20189;-67
2023/03/03 02:11:41;;;;;;;25.88;14.82;;;;;;;6.29;55.17;102361.84;5120673;28;20069;-67
2023/03/03 02:14:10;;;;;;;23.27;15.10;;;;;;;6.28;55.35;102357.47;5123194;28;20143;-67
2023/03/03 02:16:39;;;;;;;23.65;14.27;;;;;;;6.29;55.11;102358.31;5122151;28;20072;-67
2023/03/03 02:19:13;;;;;;;23.77;15.30;;;;;;;6.30;54.73;102363.50;5122064;28;20051;-67
2023/03/03 02:21:41;;;;;;;20.70;13.70;;;;;;;6.27;54.87;102358.47;5119607;28;20067;-67
2023/03/03 02:24:16;;;;;;;27.55;16.42;;;;;;;6.28;54.90;102353.97;5114904;28;20043;-67
2023/03/03 02:26:45;;;;;;;20.95;14.02;;;;;;;6.27;54.98;102362.97;5122556;28;20319;-67
2023/03/03 02:29:13;;;;;;;23.35;15.35;;;;;;;6.29;54.72;102367.16;5113884;28;20099;-66
2023/03/03 02:31:41;;;;;;;25.50;15.25;;;;;;;6.30;54.83;102368.00;5113363;28;20398;-66
2023/03/03 02:34:09;;;;;;;25.50;14.27;;;;;;;6.27;54.64;102361.16;5119442;28;20051;-66
2023/03/03 02:36:39;;;;;;;24.90;15.73;;;;;;;6.28;54.57;102372.66;5115639;28;20052;-67
2023/03/03 02:39:10;;;;;;;24.33;14.98;;;;;;;6.28;54.60;102370.84;5120533;28;20047;-67
2023/03/03 02:41:43;;;;;;;22.98;14.18;;;;;;;6.28;54.72;102370.00;5120617;28;20496;-67
2023/03/03 02:44:14;;;;;;;24.05;14.40;;;;;;;6.24;54.79;102369.47;5121455;28;20069;-67
2023/03/03 02:46:44;;;;;;;24.15;14.80;;;;;;;6.23;54.69;102366.97;5118478;28;20040;-67
2023/03/03 02:49:15;;;;;;;27.20;14.77;;;;;;;6.22;54.78;102367.94;5117258;28;20048;-67
2023/03/03 02:51:43;;;;;;;24.75;14.82;;;;;;;6.20;54.68;102376.13;5111299;28;20043;-67
2023/03/03 02:54:13;;;;;;;24.70;14.77;;;;;;;6.19;54.67;102369.09;5120880;28;20063;-67
2023/03/03 02:56:41;;;;;;;23.08;14.18;;;;;;;6.19;54.82;102367.28;5119361;28;20040;-67
2023/03/03 02:59:09;;;;;;;23.75;13.98;;;;;;;6.19;54.59;102371.78;5114982;28;20142;-67
2023/03/03 03:01:38;;;;;;;25.23;14.68;;;;;;;6.14;54.64;102364.22;5120653;28;20469;-67
2023/03/03 03:04:08;;;;;;;22.00;13.52;;;;;;;6.11;54.64;102364.53;5119586;28;20044;-67
2023/03/03 03:06:36;;;;;;;22.85;13.90;;;;;;;6.11;54.64;102369.03;5120865;28;20047;-67
2023/03/03 03:09:05;;;;;;;25.27;15.23;;;;;;;6.09;54.63;102369.19;5119686;28;20063;-67
2023/03/03 03:11:34;;;;;;;24.55;14.20;;;;;;;6.10;54.42;102372.69;5113629;28;20055;-67
2023/03/03 03:14:01;;;;;;;25.83;13.23;;;;;;;6.09;54.50;102371.88;5118391;28;20158;-67
2023/03/03 03:16:30;;;;;;;22.98;14.65;;;;;;;6.10;54.65;102375.38;5116013;28;20047;-67
2023/03/03 03:19:01;;;;;;;22.42;13.70;;;;;;;6.10;54.52;102375.38;5121723;28;20051;-67
2023/03/03 03:21:30;;;;;;;20.58;13.00;;;;;;;6.10;54.50;102375.38;5117182;28;20053;-67
2023/03/03 03:23:58;;;;;;;22.17;14.10;;;;;;;6.08;54.25;102378.19;5110364;28;20585;-67
2023/03/03 03:26:26;;;;;;;23.92;14.32;;;;;;;6.12;54.32;102382.22;5117907;28;20050;-66
2023/03/03 03:28:54;;;;;;;24.75;13.93;;;;;;;6.09;54.55;102387.88;5109687;28;20105;-66
2023/03/03 03:31:22;;;;;;;21.00;12.93;;;;;;;6.07;54.35;102389.88;5119112;28;20047;-66
2023/03/03 03:33:50;;;;;;;23.65;13.23;;;;;;;6.08;54.59;102396.03;5118047;28;20079;-66
2023/03/03 03:36:19;;;;;;;26.13;14.00;;;;;;;6.07;54.54;102395.19;5116535;28;20044;-66
2023/03/03 03:38:47;;;;;;;21.65;13.50;;;;;;;6.07;54.60;102387.19;5120990;28;20127;-67
2023/03/03 03:41:15;;;;;;;22.48;13.32;;;;;;;6.06;54.82;102392.69;5116239;28;20044;-66
2023/03/03 03:43:43;;;;;;;22.73;13.30;;;;;;;6.06;54.39;102392.69;5116873;28;20468;-67
2023/03/03 03:46:10;;;;;;;22.00;13.23;;;;;;;6.05;54.62;102399.00;5115787;28;20155;-67
2023/03/03 03:48:38;;;;;;;21.40;13.10;;;;;;;6.05;54.50;102396.34;5105348;28;20040;-66
2023/03/03 03:51:06;;;;;;;21.63;13.80;;;;;;;6.06;54.73;102388.19;5119220;28;20055;-66
2023/03/03 03:53:35;;;;;;;22.05;12.90;;;;;;;6.08;54.65;102388.03;5112695;28;20107;-66
2023/03/03 03:56:03;;;;;;;21.48;12.82;;;;;;;6.06;54.60;102393.53;5118981;28;20401;-66
2023/03/03 03:58:31;;;;;;;22.23;13.48;;;;;;;6.08;54.44;102385.38;5114756;28;20048;-67
2023/03/03 04:01:02;;;;;;;19.25;12.73;;;;;;;6.07;54.61;102392.53;5115339;28;20080;-66
2023/03/03 04:03:30;;;;;;;24.95;14.20;;;;;;;6.05;54.40;102391.00;5115843;28;20082;-66
2023/03/03 04:05:58;;;;;;;21.08;12.85;;;;;;;6.05;54.73;102396.34;5112636;28;20058;-66
2023/03/03 04:08:25;;;;;;;24.17;13.63;;;;;;;6.04;54.68;102395.50;5114055;28;20051;-65
2023/03/03 04:10:55;;;;;;;21.05;12.90;;;;;;;6.01;54.67;102390.47;5109986;28;20060;-66
2023/03/03 04:13:22;;;;;;;23.17;13.30;;;;;;;6.00;55.15;102395.97;5116789;28;20151;-66
2023/03/03 04:15:50;;;;;;;22.48;13.45;;;;;;;6.01;54.67;102402.97;5120846;28;20090;-66
2023/03/03 04:18:18;;;;;;;21.58;12.40;;;;;;;6.01;55.11;102397.66;5117428;28;20062;-66
2023/03/03 04:20:46;;;;;;;21.95;13.38;;;;;;;5.99;55.07;102399.63;5122312;28;20122;-66
2023/03/03 04:23:13;;;;;;;23.58;13.05;;;;;;;5.98;55.01;102401.47;5117624;28;20466;-67
2023/03/03 04:25:41;;;;;;;20.52;12.90;;;;;;;5.98;54.99;102406.78;5113371;28;20080;-67
2023/03/03 04:28:10;;;;;;;21.83;12.70;;;;;;;5.98;55.16;102396.13;5123341;28;20086;-66
2023/03/03 04:30:38;;;;;;;24.08;14.15;;;;;;;5.98;54.67;102403.28;5116729;28;20099;-67
2023/03/03 04:33:06;;;;;;;21.08;12.75;;;;;;;5.97;54.99;102401.63;5117292;28;20081;-67
2023/03/03 04:35:34;;;;;;;21.17;13.25;;;;;;;5.97;55.04;102399.78;5120021;28;20054;-67
2023/03/03 04:38:01;;;;;;;22.88;13.70;;;;;;;5.96;55.07;102400.78;5121126;28;20596;-67
2023/03/03 04:40:29;;;;;;;24.08;13.75;;;;;;;5.95;55.12;102396.44;5122658;28;20069;-67
2023/03/03 04:42:57;;;;;;;24.70;13.75;;;;;;;5.91;55.22;102408.41;5118606;27;20044;-66
2023/03/03 04:45:26;;;;;;;24.95;14.32;;;;;;;5.89;55.40;102405.03;5118917;28;20134;-66
2023/03/03 04:47:54;;;;;;;27.00;14.45;;;;;;;5.88;55.30;102408.69;5119765;28;20047;-66
2023/03/03 04:50:21;;;;;;;23.25;13.35;;;;;;;5.90;55.27;102406.72;5114160;28;20111;-66
2023/03/03 04:52:49;;;;;;;22.05;12.95;;;;;;;5.90;55.62;102408.56;5115215;28;20099;-67
2023/03/03 04:55:17;;;;;;;22.63;13.48;;;;;;;5.89;55.50;102410.38;5124026;28;20077;-67
2023/03/03 04:57:45;;;;;;;23.42;13.50;;;;;;;5.91;55.55;102420.91;5124730;28;20069;-67
2023/03/03 05:00:16;;;;;;;23.27;13.10;;;;;;;5.90;55.39;102419.22;5111405;28;20140;-67
2023/03/03 05:02:47;;;;;;;22.58;13.90;;;;;;;5.87;55.08;102415.84;5117221;27;20070;-67
2023/03/03 05:05:15;;;;;;;24.58;14.18;;;;;;;5.79;55.76;102406.91;5118721;28;20052;-67
2023/03/03 05:07:43;;;;;;;27.33;14.93;;;;;;;5.86;55.58;102413.31;5118368;28;20504;-66
2023/03/03 05:10:11;;;;;;;23.85;14.35;;;;;;;5.85;55.48;102422.31;5121761;27;20039;-67
2023/03/03 05:12:40;;;;;;;24.40;13.52;;;;;;;5.83;55.42;102417.13;5123443;28;20075;-67
2023/03/03 05:15:08;;;;;;;22.75;14.05;;;;;;;5.79;55.20;102407.75;5123971;28;20051;-67
2023/03/03 05:17:36;;;;;;;21.95;13.90;;;;;;;5.84;55.38;102426.81;5120346;28;20065;-67
2023/03/03 05:20:09;;;;;;;25.23;14.10;;;;;;;5.83;55.51;102418.97;5123325;28;20107;-67
2023/03/03 05:22:36;;;;;;;25.75;14.68;;;;;;;5.83;55.58;102427.81;5120627;28;20044;-66
2023/03/03 05:25:05;;;;;;;25.08;15.13;;;;;;;5.71;55.42;102406.84;5122434;28;20460;-66
2023/03/03 05:27:33;;;;;;;26.10;13.88;;;;;;;5.85;55.39;102433.81;5120097;28;20059;-66
2023/03/03 05:30:01;;;;;;;25.50;14.85;;;;;;;5.83;55.30;102426.97;5122744;28;20508;-66
2023/03/03 05:32:29;;;;;;;24.50;14.65;;;;;;;5.77;55.54;102432.91;5114609;28;20052;-66
2023/03/03 05:34:56;;;;;;;23.20;13.65;;;;;;;5.74;55.44;102436.72;5114754;28;20497;-66
2023/03/03 05:37:26;;;;;;;23.58;14.55;;;;;;;5.74;55.75;102434.06;5115045;28;20055;-66
2023/03/03 05:39:53;;;;;;;24.75;14.27;;;;;;;5.66;55.34;102435.78;5120441;28;20457;-65
2023/03/03 05:42:21;;;;;;;25.92;14.40;;;;;;;5.63;55.87;102436.94;5109487;27;20051;-66
2023/03/03 05:44:49;;;;;;;26.85;14.48;;;;;;;5.61;55.90;102436.25;5110554;28;20050;-66
2023/03/03 05:47:17;;;;;;;22.92;13.40;;;;;;;5.65;55.76;102434.97;5116436;27;20061;-67
2023/03/03 05:49:45;;;;;;;23.13;14.15;;;;;;;5.65;55.82;102434.97;5121963;28;20104;-67
2023/03/03 05:52:13;;;;;;;25.20;14.60;;;;;;;5.67;55.79;102427.66;5123223;28;20114;-67
2023/03/03 05:54:42;;;;;;;26.42;14.18;;;;;;;5.66;55.47;102427.78;5115148;28;20070;-67
2023/03/03 05:57:10;;;;;;;23.30;14.52;;;;;;;5.70;55.61;102440.69;5112360;28;20474;-67
2023/03/03 05:59:37;;;;;;;23.13;13.35;;;;;;;5.62;55.49;102421.09;5118605;28;20044;-67
2023/03/03 06:02:05;;;;;;;26.10;14.23;;;;;;;5.68;55.80;102437.31;5114249;28;20326;-67
2023/03/03 06:04:33;;;;;;;24.80;14.25;;;;;;;5.77;55.67;102441.75;5116548;28;20047;-65
2023/03/03 06:07:01;;;;;;;24.98;13.75;;;;;;;5.92;55.04;102442.09;4752665;28;9999884;-66
2023/03/03 06:09:29;;;;;;;27.75;15.43;;;;;;;6.08;54.60;102444.09;5107567;27;20066;-66
2023/03/03 06:11:58;;;;;;;24.33;13.52;;;;;;;6.27;54.07;102448.41;5117034;28;20108;-66
2023/03/03 06:14:26;;;;;;;24.13;14.50;;;;;;;6.37;53.43;102428.63;5113666;28;20476;-66
2023/03/03 06:16:54;;;;;;;23.60;12.85;;;;;;;6.60;53.33;102439.66;5116115;28;20085;-66
2023/03/03 06:19:22;;;;;;;24.70;13.45;;;;;;;6.64;52.89;102448.19;5112892;28;20166;-66
2023/03/03 06:21:50;;;;;;;22.85;13.45;;;;;;;6.61;53.08;102443.16;5117411;28;20061;-68
2023/03/03 06:24:17;;;;;;;24.15;14.63;;;;;;;6.55;53.02;102449.13;5114363;28;20066;-69
2023/03/03 06:26:45;;;;;;;25.65;14.35;;;;;;;6.45;53.42;102449.22;5114884;28;20043;-69
2023/03/03 06:29:14;;;;;;;23.58;13.27;;;;;;;6.34;53.49;102447.66;5114359;28;20462;-66
2023/03/03 06:31:42;;;;;;;27.10;14.63;;;;;;;6.24;54.04;102451.41;5118615;28;20047;-66
2023/03/03 06:34:10;;;;;;;27.33;14.25;;;;;;;6.18;54.14;102464.38;5116121;28;20083;-67
2023/03/03 06:36:38;;;;;;;33.55;15.40;;;;;;;6.11;54.53;102463.28;5104114;28;20052;-66
2023/03/03 06:39:06;;;;;;;32.60;16.25;;;;;;;6.05;54.69;102471.91;5112727;28;20414;-67
2023/03/03 06:41:34;;;;;;;25.13;14.85;;;;;;;5.92;54.99;102458.09;5104795;28;20050;-66
2023/03/03 06:44:01;;;;;;;27.45;14.95;;;;;;;5.95;54.94;102478.31;5105561;28;20048;-67
2023/03/03 06:46:31;;;;;;;29.45;15.30;;;;;;;5.94;55.00;102476.63;5101576;28;20058;-67
2023/03/03 06:48:58;;;;;;;23.77;14.07;;;;;;;5.90;55.19;102478.75;5112268;28;20209;-67
2023/03/03 06:51:32;;;;;;;32.60;16.83;;;;;;;5.85;55.31;102486.34;5114050;28;20135;-66
2023/03/03 06:54:06;;;;;;;29.13;15.88;;;;;;;5.78;55.39;102485.28;5113279;28;20482;-69
2023/03/03 06:56:36;;;;;;;28.60;15.80;;;;;;;5.78;55.41;102495.94;5115654;28;20036;-66
2023/03/03 06:59:12;;;;;;;27.13;14.93;;;;;;;5.72;55.58;102491.22;5117340;28;20599;-68
2023/03/03 07:01:42;;;;;;;25.20;14.98;;;;;;;5.70;55.88;102499.34;5113460;28;20059;-66
2023/03/03 07:04:27;;;;;;;27.08;14.65;;;;;;;5.66;55.68;102505.97;5112404;28;20047;-66
2023/03/03 07:06:55;;;;;;;28.38;14.07;;;;;;;5.65;55.84;102500.78;5117417;28;20484;-66
2023/03/03 07:09:25;;;;;;;26.35;15.13;;;;;;;5.61;55.78;102497.59;5112905;28;20147;-66
2023/03/03 07:11:56;;;;;;;28.92;14.93;;;;;;;5.66;55.69;102516.66;5113223;28;20052;-67
2023/03/03 07:14:24;;;;;;;25.05;15.02;;;;;;;5.67;55.53;102510.31;5114122;28;20130;-66
2023/03/03 07:16:58;;;;;;;26.42;14.55;;;;;;;5.68;55.60;102509.34;5112929;28;20082;-67
2023/03/03 07:19:33;;;;;;;28.45;15.38;;;;;;;5.84;55.53;102508.69;5111775;28;20049;-67
2023/03/03 07:22:12;;;;;;;28.13;14.65;;;;;;;6.04;54.73;102506.75;5113382;28;20051;-66
2023/03/03 07:24:40;;;;;;;26.02;14.63;;;;;;;6.20;54.34;102504.25;5113196;28;20151;-65
2023/03/03 07:27:13;;;;;;;28.73;15.02;;;;;;;6.43;53.40;102499.28;5108257;28;20074;-65
2023/03/03 07:29:41;;;;;;;25.90;15.30;;;;;;;6.61;53.37;102502.78;5111922;28;20678;-66
2023/03/03 07:32:24;;;;;;;29.00;15.13;;;;;;;6.80;52.61;102501.75;5110383;28;20044;-67
2023/03/03 07:34:54;;;;;;;25.38;14.05;;;;;;;7.00;51.60;102500.50;5115603;28;20065;-67
2023/03/03 07:37:29;;;;;;;23.38;13.40;;;;;;;7.20;51.47;102506.47;5109672;28;20053;-67
2023/03/03 07:39:59;;;;;;;23.15;13.27;;;;;;;7.38;50.69;102512.59;5108366;28;20163;-67
2023/03/03 07:42:34;;;;;;;26.23;14.07;;;;;;;7.52;51.08;102511.13;5112403;28;20083;-67
2023/03/03 07:45:03;;;;;;;25.95;13.98;;;;;;;7.59;50.25;102519.34;5113731;28;20056;-68
2023/03/03 07:47:36;;;;;;;25.73;13.70;;;;;;;7.45;50.66;102516.28;5109477;28;20076;-68
2023/03/03 07:50:15;;;;;;;24.48;14.25;;;;;;;7.30;51.46;102517.88;5115477;28;20044;-67
2023/03/03 07:52:55;;;;;;;21.95;13.40;;;;;;;7.09;51.88;102525.47;5114410;28;20434;-66
2023/03/03 07:55:30;;;;;;;23.00;13.50;;;;;;;6.94;52.13;102533.22;5105558;28;20105;-67
2023/03/03 07:58:17;;;;;;;22.73;13.05;;;;;;;6.76;52.75;102527.09;5111610;28;20059;-66
2023/03/03 08:01:27;;;;;;;22.13;13.52;;;;;;;6.59;53.05;102531.47;5113163;28;20469;-65
2023/03/03 08:03:56;;;;;;;26.55;14.85;;;;;;;6.43;53.89;102531.34;5118546;28;20083;-66
2023/03/03 08:06:52;;;;;;;27.08;14.25;;;;;;;6.31;54.26;102527.22;5118241;28;20399;-67
2023/03/03 08:09:31;;;;;;;24.85;15.43;;;;;;;6.31;54.19;102535.22;5115954;28;20095;-68
2023/03/03 08:12:11;;;;;;;25.73;14.88;;;;;;;6.43;54.02;102542.00;5118185;28;20055;-67
2023/03/03 08:14:38;;;;;;;23.38;13.70;;;;;;;6.64;53.75;102550.53;5118126;27;20044;-67
2023/03/03 08:17:16;;;;;;;28.27;14.52;;;;;;;6.81;52.80;102543.50;5118291;28;20070;-66
2023/03/03 08:19:45;;;;;;;27.55;15.30;;;;;;;6.92;52.61;102553.94;5114300;27;20522;-66
2023/03/03 08:22:17;;;;;;;23.70;13.90;;;;;;;7.08;52.58;102548.69;5118344;27;20066;-67
2023/03/03 08:24:45;;;;;;;27.05;14.25;;;;;;;7.23;52.01;102553.44;5121966;27;20106;-67
2023/03/03 08:27:12;;;;;;;24.70;13.52;;;;;;;7.45;51.46;102558.25;5119815;27;20062;-67
2023/03/03 08:29:40;;;;;;;25.25;15.38;;;;;;;7.59;50.66;102562.16;5114301;27;20120;-67
2023/03/03 08:32:08;;;;;;;26.10;15.25;;;;;;;7.52;51.36;102564.66;5111856;27;20043;-68
2023/03/03 08:34:36;;;;;;;24.02;13.75;;;;;;;7.33;51.28;102560.38;5117059;27;20058;-67
2023/03/03 08:37:05;;;;;;;26.02;15.32;;;;;;;7.06;51.98;102548.00;5115768;27;20067;-68
2023/03/03 08:39:33;;;;;;;22.58;13.63;;;;;;;6.96;52.56;102559.78;5116393;27;20071;-67
2023/03/03 08:42:01;;;;;;;24.17;13.88;;;;;;;6.75;53.35;102566.34;5114715;27;20051;-68
2023/03/03 08:44:29;;;;;;;23.00;13.80;;;;;;;6.65;53.77;102567.41;5112856;28;20152;-67
2023/03/03 08:46:56;;;;;;;22.75;13.75;;;;;;;6.53;53.70;102564.97;5111927;27;20070;-67
2023/03/03 08:49:24;;;;;;;24.17;14.38;;;;;;;6.46;53.83;102573.75;5118591;27;20567;-65
2023/03/03 08:51:53;;;;;;;25.58;15.10;;;;;;;6.28;54.64;102562.22;5122506;27;20039;-63
2023/03/03 08:54:22;;;;;;;19.27;12.93;;;;;;;6.33;54.60;102578.63;5121106;28;20066;-67
2023/03/03 08:56:50;;;;;;;25.95;14.60;;;;;;;6.22;54.74;102571.69;5119590;28;20054;-66
2023/03/03 08:59:19;;;;;;;25.55;14.20;;;;;;;6.28;54.86;102592.44;5116028;28;20047;-65
2023/03/03 09:01:46;;;;;;;27.08;14.57;;;;;;;6.25;54.94;102595.41;5123303;28;20086;-66
2023/03/03 09:04:14;;;;;;;24.45;13.25;;;;;;;6.24;54.86;102584.88;5113621;28;20047;-67
2023/03/03 09:06:42;;;;;;;25.55;14.32;;;;;;;6.24;54.87;102592.88;5115769;28;20430;-66
2023/03/03 09:09:10;;;;;;;24.42;15.07;;;;;;;6.21;55.19;102588.69;5115954;28;20059;-67
2023/03/03 09:11:39;;;;;;;24.00;14.05;;;;;;;6.17;55.33;102595.31;5112105;28;20150;-66
2023/03/03 09:14:11;;;;;;;21.48;13.02;;;;;;;6.13;55.65;102594.78;5119946;28;20048;-65
2023/03/03 09:16:41;;;;;;;25.83;13.70;;;;;;;6.11;55.26;102593.25;5116444;28;20048;-66
2023/03/03 09:19:23;;;;;;;25.05;14.05;;;;;;;6.12;55.63;102597.59;5115000;28;20086;-66
2023/03/03 09:21:53;;;;;;;21.42;12.75;;;;;;;6.09;55.49;102595.22;5117871;28;20048;-67
2023/03/03 09:24:26;;;;;;;23.42;13.30;;;;;;;6.03;55.91;102596.66;5116937;28;20051;-67
2023/03/03 09:26:57;;;;;;;25.17;13.40;;;;;;;6.02;55.98;102600.31;5118252;27;20047;-67
2023/03/03 09:29:28;;;;;;;22.15;12.88;;;;;;;5.98;55.87;102601.59;5126603;27;20050;-67
2023/03/03 09:31:57;;;;;;;20.50;11.63;;;;;;;5.93;55.78;102597.69;5121008;27;20043;-66
2023/03/03 09:34:38;;;;;;;22.83;12.85;;;;;;;5.96;55.89;102594.75;5115401;28;20051;-65
2023/03/03 09:37:18;;;;;;;21.17;11.88;;;;;;;5.96;55.77;102592.06;5119505;28;20055;-66
2023/03/03 09:39:49;;;;;;;21.83;12.15;;;;;;;5.93;55.59;102581.69;5111853;28;20100;-66
2023/03/03 09:42:55;;;;;;;22.50;12.63;;;;;;;6.00;55.81;102599.63;5118951;28;20048;-66
2023/03/03 09:45:38;;;;;;;21.77;12.10;;;;;;;6.03;55.37;102602.00;5112523;27;20115;-66
2023/03/03 09:48:35;;;;;;;22.73;11.88;;;;;;;6.19;55.30;102609.34;5117638;28;20044;-67
2023/03/03 09:51:18;;;;;;;19.08;10.95;;;;;;;6.41;55.03;102608.94;5116442;28;20048;-65
2023/03/03 09:54:00;;;;;;;21.00;11.27;;;;;;;6.62;54.30;102597.94;5115768;28;20104;-64
2023/03/03 09:56:34;;;;;;;18.73;10.43;;;;;;;6.83;53.85;102600.31;5108473;28;20099;-65
2023/03/03 09:59:20;;;;;;;20.90;11.48;;;;;;;7.07;53.16;102602.31;5114694;28;20066;-63
2023/03/03 10:02:12;;;;;;;19.67;10.65;;;;;;;7.36;52.20;102605.50;5115645;27;20466;-64
2023/03/03 10:04:59;;;;;;;17.35;10.77;;;;;;;7.53;51.91;102600.25;5114184;28;20052;-63
2023/03/03 10:07:39;;;;;;;20.15;11.40;;;;;;;7.61;51.39;102608.34;5117378;28;20497;-65
2023/03/03 10:10:44;;;;;;;19.80;11.43;;;;;;;7.75;51.05;102608.56;5111747;27;20067;-64
2023/03/03 10:13:32;;;;;;;19.08;10.90;;;;;;;7.88;50.74;102609.97;5120157;28;20102;-64
2023/03/03 10:16:21;;;;;;;20.42;11.40;;;;;;;7.87;51.08;102610.97;5119933;28;20086;-64
2023/03/03 10:18:57;;;;;;;24.70;11.77;;;;;;;7.87;50.93;102610.97;5112956;28;20056;-64
2023/03/03 10:21:34;;;;;;;22.02;12.82;;;;;;;7.88;51.43;102610.81;5119328;27;20071;-65
2023/03/03 10:24:12;;;;;;;20.05;11.13;;;;;;;7.96;50.65;102599.28;5116409;28;20058;-65
2023/03/03 10:26:56;;;;;;;19.20;11.32;;;;;;;8.05;50.16;102614.38;5112516;28;20050;-65
2023/03/03 10:29:50;;;;;;;20.67;12.30;;;;;;;8.09;50.81;102619.25;5117404;28;20046;-64
2023/03/03 10:32:50;;;;;;;20.23;12.48;;;;;;;7.95;50.92;102611.00;5116000;28;20040;-65
2023/03/03 10:35:43;;;;;;;22.15;11.98;;;;;;;7.88;50.60;102612.66;5114488;28;20047;-65
2023/03/03 10:38:46;;;;;;;21.00;12.13;;;;;;;7.68;52.01;102612.88;5114567;28;20217;-65
2023/03/03 10:41:28;;;;;;;20.70;11.98;;;;;;;7.47;52.62;102615.94;5115912;28;20122;-64
2023/03/03 10:44:24;;;;;;;16.10;10.50;;;;;;;7.26;52.76;102617.31;5116999;28;20044;-64
2023/03/03 10:47:14;;;;;;;18.40;11.05;;;;;;;7.06;53.34;102630.88;5118604;28;20042;-65
2023/03/03 10:49:56;;;;;;;19.42;10.25;;;;;;;6.96;53.18;102621.25;4751107;28;10001409;-66
2023/03/03 10:52:33;;;;;;;20.75;11.35;;;;;;;6.92;53.57;102623.44;5104715;28;20042;-65
2023/03/03 10:55:21;;;;;;;18.98;11.15;;;;;;;6.90;53.64;102619.22;5113392;28;20048;-66
2023/03/03 10:58:04;;;;;;;18.05;9.95;;;;;;;6.84;54.13;102620.69;5115508;28;20071;-66
2023/03/03 11:00:39;;;;;;;17.90;10.07;;;;;;;6.82;54.01;102614.66;5108141;28;20047;-66
2023/03/03 11:03:48;;;;;;;17.15;9.63;;;;;;;6.79;54.36;102610.47;5112836;28;20205;-66
2023/03/03 11:06:23;;;;;;;16.77;10.00;;;;;;;6.79;54.05;102604.28;5114211;28;20104;-66
2023/03/03 11:08:56;;;;;;;18.02;10.60;;;;;;;6.79;54.45;102606.94;5106380;28;20516;-65
2023/03/03 11:11:34;;;;;;;16.90;9.55;;;;;;;6.82;54.20;102609.31;5115079;28;20052;-66
2023/03/03 11:14:10;;;;;;;17.80;9.77;;;;;;;6.82;54.03;102604.81;5110992;28;20071;-65
2023/03/03 11:16:50;;;;;;;14.93;9.00;;;;;;;6.81;54.39;102599.63;5110471;28;20047;-65
2023/03/03 11:19:32;;;;;;;15.70;9.55;;;;;;;6.80;54.68;102604.13;5108227;28;20055;-66
2023/03/03 11:22:12;;;;;;;16.02;9.05;;;;;;;6.79;54.40;102605.13;5116781;28;20115;-66
2023/03/03 11:24:51;;;;;;;16.35;9.90;;;;;;;6.77;55.22;102603.59;5111555;28;20093;-66
2023/03/03 11:27:43;;;;;;;17.05;9.75;;;;;;;6.76;54.70;102604.59;5109960;28;20067;-66
2023/03/03 11:30:33;;;;;;;15.57;9.82;;;;;;;6.77;55.12;102598.25;5118038;28;20069;-66
2023/03/03 11:33:04;;;;;;;14.27;8.57;;;;;;;6.76;54.69;102602.75;5105532;28;20059;-66
2023/03/03 11:35:40;;;;;;;15.18;8.95;;;;;;;6.58;55.32;102585.06;5112382;28;20210;-66
2023/03/03 11:38:24;;;;;;;18.23;10.02;;;;;;;6.68;55.09;102600.00;5114659;28;20587;-66
2023/03/03 11:40:54;;;;;;;17.48;10.00;;;;;;;6.73;55.14;102603.06;5113919;28;20047;-66